sensor_id;sensor_type;location;lat;lon;timestamp;temperature;humidity
17341;DHT22;8788;49.930;8.660;2024-01-07T00:01:33;7.20;99.90
17341;DHT22;8788;49.930;8.660;2024-01-07T00:04:00;7.10;99.90
17341;DHT22;8788;49.930;8.660;2024-01-07T00:06:29;7.10;99.90
17341;DHT22;8788;49.930;8.660;2024-01-07T00:08:56;7.10;99.90
17341;DHT22;8788;49.930;8.660;2024-01-07T00:11:23;7.10;99.90
17341;DHT22;8788;49.930;8.660;2024-01-07T00:13:51;7.10;99.90
17341;DHT22;8788;49.930;8.660;2024-01-07T00:16:18;7.10;99.90
17341;DHT22;8788;49.930;8.660;2024-01-07T00:18:45;7.10;99.90
17341;DHT22;8788;49.930;8.660;2024-01-07T00:21:12;7.10;99.90
17341;DHT22;8788;49.930;8.660;2024-01-07T00:23:40;7.10;99.90
17341;DHT22;8788;49.930;8.660;2024-01-07T00:26:07;7.10;99.90
17341;DHT22;8788;49.930;8.660;2024-01-07T00:28:36;7.10;99.90
17341;DHT22;8788;49.930;8.660;2024-01-07T00:31:03;7.10;99.90
17341;DHT22;8788;49.930;8.660;2024-01-07T00:33:31;7.00;99.90
17341;DHT22;8788;49.930;8.660;2024-01-07T00:35:58;7.00;99.90
17341;DHT22;8788;49.930;8.660;2024-01-07T00:38:25;7.00;99.90
17341;DHT22;8788;49.930;8.660;2024-01-07T00:40:54;7.00;99.90
17341;DHT22;8788;49.930;8.660;2024-01-07T00:43:21;7.00;99.90
17341;DHT22;8788;49.930;8.660;2024-01-07T00:45:48;7.00;99.90
17341;DHT22;8788;49.930;8.660;2024-01-07T00:48:15;7.00;99.90
17341;DHT22;8788;49.930;8.660;2024-01-07T00:50:42;6.90;99.90
17341;DHT22;8788;49.930;8.660;2024-01-07T00:53:10;6.90;99.90
17341;DHT22;8788;49.930;8.660;2024-01-07T00:55:37;6.90;99.90
17341;DHT22;8788;49.930;8.660;2024-01-07T00:58:05;6.90;99.90
17341;DHT22;8788;49.930;8.660;2024-01-07T01:00:32;6.80;99.90
17341;DHT22;8788;49.930;8.660;2024-01-07T01:02:59;6.80;99.90
17341;DHT22;8788;49.930;8.660;2024-01-07T01:05:26;6.80;99.90
17341;DHT22;8788;49.930;8.660;2024-01-07T01:07:53;6.80;99.90
17341;DHT22;8788;49.930;8.660;2024-01-07T01:10:22;6.80;99.90
17341;DHT22;8788;49.930;8.660;2024-01-07T01:12:49;6.80;99.90
17341;DHT22;8788;49.930;8.660;2024-01-07T01:15:19;6.80;99.90
17341;DHT22;8788;49.930;8.660;2024-01-07T01:17:46;6.80;99.90
17341;DHT22;8788;49.930;8.660;2024-01-07T01:20:14;6.90;99.90
17341;DHT22;8788;49.930;8.660;2024-01-07T01:22:41;6.90;99.90
17341;DHT22;8788;49.930;8.660;2024-01-07T01:25:08;6.80;99.90
17341;DHT22;8788;49.930;8.660;2024-01-07T01:27:36;6.80;99.90
17341;DHT22;8788;49.930;8.660;2024-01-07T01:30:04;6.80;99.90
17341;DHT22;8788;49.930;8.660;2024-01-07T01:32:32;6.90;99.90
17341;DHT22;8788;49.930;8.660;2024-01-07T01:34:59;6.90;99.90
17341;DHT22;8788;49.930;8.660;2024-01-07T01:37:27;6.90;99.90
17341;DHT22;8788;49.930;8.660;2024-01-07T01:39:54;6.90;99.90
17341;DHT22;8788;49.930;8.660;2024-01-07T01:42:21;6.90;99.90
17341;DHT22;8788;49.930;8.660;2024-01-07T01:44:48;6.80;99.90
17341;DHT22;8788;49.930;8.660;2024-01-07T01:47:16;6.80;99.90
17341;DHT22;8788;49.930;8.660;2024-01-07T01:49:45;6.80;99.90
17341;DHT22;8788;49.930;8.660;2024-01-07T01:52:12;6.80;99.90
17341;DHT22;8788;49.930;8.660;2024-01-07T01:54:41;6.80;99.90
17341;DHT22;8788;49.930;8.660;2024-01-07T01:57:09;6.80;99.90
17341;DHT22;8788;49.930;8.660;2024-01-07T01:59:40;6.80;99.90
17341;DHT22;8788;49.930;8.660;2024-01-07T02:02:09;6.80;99.90
17341;DHT22;8788;49.930;8.660;2024-01-07T02:04:36;6.70;99.90
17341;DHT22;8788;49.930;8.660;2024-01-07T02:07:04;6.70;99.90
17341;DHT22;8788;49.930;8.660;2024-01-07T02:09:32;6.70;99.90
17341;DHT22;8788;49.930;8.660;2024-01-07T02:12:03;6.70;99.90
17341;DHT22;8788;49.930;8.660;2024-01-07T02:14:30;6.70;99.90
17341;DHT22;8788;49.930;8.660;2024-01-07T02:16:57;6.70;99.90
17341;DHT22;8788;49.930;8.660;2024-01-07T02:19:26;6.70;99.90
17341;DHT22;8788;49.930;8.660;2024-01-07T02:21:53;6.70;99.90
17341;DHT22;8788;49.930;8.660;2024-01-07T02:24:21;6.70;99.90
17341;DHT22;8788;49.930;8.660;2024-01-07T02:26:49;6.70;99.90
17341;DHT22;8788;49.930;8.660;2024-01-07T02:29:16;6.70;99.90
17341;DHT22;8788;49.930;8.660;2024-01-07T02:31:43;6.70;99.90
17341;DHT22;8788;49.930;8.660;2024-01-07T02:34:10;6.70;99.90
17341;DHT22;8788;49.930;8.660;2024-01-07T02:36:37;6.60;99.90
17341;DHT22;8788;49.930;8.660;2024-01-07T02:39:04;6.60;99.90
17341;DHT22;8788;49.930;8.660;2024-01-07T02:41:32;6.70;99.90
17341;DHT22;8788;49.930;8.660;2024-01-07T02:43:59;6.70;99.90
17341;DHT22;8788;49.930;8.660;2024-01-07T02:46:26;6.70;99.90
17341;DHT22;8788;49.930;8.660;2024-01-07T02:48:53;6.60;99.90
17341;DHT22;8788;49.930;8.660;2024-01-07T02:51:21;6.60;99.90
17341;DHT22;8788;49.930;8.660;2024-01-07T02:53:47;6.50;99.90
17341;DHT22;8788;49.930;8.660;2024-01-07T02:56:15;6.50;99.90
17341;DHT22;8788;49.930;8.660;2024-01-07T02:58:43;6.40;99.90
17341;DHT22;8788;49.930;8.660;2024-01-07T03:01:10;6.40;99.90
17341;DHT22;8788;49.930;8.660;2024-01-07T03:03:37;6.40;99.90
17341;DHT22;8788;49.930;8.660;2024-01-07T03:06:04;6.40;99.90
17341;DHT22;8788;49.930;8.660;2024-01-07T03:08:32;6.40;99.90
17341;DHT22;8788;49.930;8.660;2024-01-07T03:11:04;6.40;99.90
17341;DHT22;8788;49.930;8.660;2024-01-07T03:13:32;6.50;99.90
17341;DHT22;8788;49.930;8.660;2024-01-07T03:16:00;6.40;99.90
17341;DHT22;8788;49.930;8.660;2024-01-07T03:18:28;6.30;99.90
17341;DHT22;8788;49.930;8.660;2024-01-07T03:20:55;6.30;99.90
17341;DHT22;8788;49.930;8.660;2024-01-07T03:23:22;6.30;99.90
17341;DHT22;8788;49.930;8.660;2024-01-07T03:25:49;6.30;99.90
17341;DHT22;8788;49.930;8.660;2024-01-07T03:28:16;6.30;99.90
17341;DHT22;8788;49.930;8.660;2024-01-07T03:30:43;6.30;99.90
17341;DHT22;8788;49.930;8.660;2024-01-07T03:33:12;6.30;99.90
17341;DHT22;8788;49.930;8.660;2024-01-07T03:35:39;6.30;99.90
17341;DHT22;8788;49.930;8.660;2024-01-07T03:38:06;6.30;99.90
17341;DHT22;8788;49.930;8.660;2024-01-07T03:40:33;6.30;99.90
17341;DHT22;8788;49.930;8.660;2024-01-07T03:43:00;6.30;99.90
17341;DHT22;8788;49.930;8.660;2024-01-07T03:45:27;6.30;99.90
17341;DHT22;8788;49.930;8.660;2024-01-07T03:47:53;6.20;99.90
17341;DHT22;8788;49.930;8.660;2024-01-07T03:50:21;6.20;99.90
17341;DHT22;8788;49.930;8.660;2024-01-07T03:52:48;6.20;99.90
17341;DHT22;8788;49.930;8.660;2024-01-07T03:55:15;6.30;99.90
17341;DHT22;8788;49.930;8.660;2024-01-07T03:57:43;6.30;99.90
17341;DHT22;8788;49.930;8.660;2024-01-07T04:00:11;6.20;99.90
17341;DHT22;8788;49.930;8.660;2024-01-07T04:02:38;6.20;99.90
17341;DHT22;8788;49.930;8.660;2024-01-07T04:05:05;6.30;99.90
17341;DHT22;8788;49.930;8.660;2024-01-07T04:07:34;6.30;99.90
17341;DHT22;8788;49.930;8.660;2024-01-07T04:10:01;6.30;99.90
17341;DHT22;8788;49.930;8.660;2024-01-07T04:12:28;6.30;99.90
17341;DHT22;8788;49.930;8.660;2024-01-07T04:14:55;6.30;99.90
17341;DHT22;8788;49.930;8.660;2024-01-07T04:17:23;6.20;99.90
17341;DHT22;8788;49.930;8.660;2024-01-07T04:19:51;6.10;99.90
17341;DHT22;8788;49.930;8.660;2024-01-07T04:22:18;6.20;99.90
17341;DHT22;8788;49.930;8.660;2024-01-07T04:24:46;6.20;99.90
17341;DHT22;8788;49.930;8.660;2024-01-07T04:27:13;6.30;99.90
17341;DHT22;8788;49.930;8.660;2024-01-07T04:29:40;6.30;99.90
17341;DHT22;8788;49.930;8.660;2024-01-07T04:32:08;6.20;99.90
17341;DHT22;8788;49.930;8.660;2024-01-07T04:34:35;6.20;99.90
17341;DHT22;8788;49.930;8.660;2024-01-07T04:37:02;6.20;99.90
17341;DHT22;8788;49.930;8.660;2024-01-07T04:39:29;6.30;99.90
17341;DHT22;8788;49.930;8.660;2024-01-07T04:41:57;6.20;99.90
17341;DHT22;8788;49.930;8.660;2024-01-07T04:44:24;6.20;99.90
17341;DHT22;8788;49.930;8.660;2024-01-07T04:46:51;6.20;99.90
17341;DHT22;8788;49.930;8.660;2024-01-07T04:49:18;6.20;99.90
17341;DHT22;8788;49.930;8.660;2024-01-07T04:51:45;6.20;99.90
17341;DHT22;8788;49.930;8.660;2024-01-07T04:54:12;6.20;99.90
17341;DHT22;8788;49.930;8.660;2024-01-07T04:56:39;6.10;99.90
17341;DHT22;8788;49.930;8.660;2024-01-07T04:59:08;6.10;99.90
17341;DHT22;8788;49.930;8.660;2024-01-07T05:01:35;6.10;99.90
17341;DHT22;8788;49.930;8.660;2024-01-07T05:04:02;6.10;99.90
17341;DHT22;8788;49.930;8.660;2024-01-07T05:06:29;6.20;99.90
17341;DHT22;8788;49.930;8.660;2024-01-07T05:08:57;6.20;99.90
17341;DHT22;8788;49.930;8.660;2024-01-07T05:11:24;6.30;99.90
17341;DHT22;8788;49.930;8.660;2024-01-07T05:13:51;6.30;99.90
17341;DHT22;8788;49.930;8.660;2024-01-07T05:16:20;6.30;99.90
17341;DHT22;8788;49.930;8.660;2024-01-07T05:18:47;6.30;99.90
17341;DHT22;8788;49.930;8.660;2024-01-07T05:21:14;6.30;99.90
17341;DHT22;8788;49.930;8.660;2024-01-07T05:23:41;6.30;99.90
17341;DHT22;8788;49.930;8.660;2024-01-07T05:26:08;6.30;99.90
17341;DHT22;8788;49.930;8.660;2024-01-07T05:28:36;6.30;99.90
17341;DHT22;8788;49.930;8.660;2024-01-07T05:31:03;6.30;99.90
17341;DHT22;8788;49.930;8.660;2024-01-07T05:33:32;6.30;99.90
17341;DHT22;8788;49.930;8.660;2024-01-07T05:35:59;6.30;99.90
17341;DHT22;8788;49.930;8.660;2024-01-07T05:38:26;6.30;99.90
17341;DHT22;8788;49.930;8.660;2024-01-07T05:40:53;6.30;99.90
17341;DHT22;8788;49.930;8.660;2024-01-07T05:43:20;6.30;99.90
17341;DHT22;8788;49.930;8.660;2024-01-07T05:45:47;6.30;99.90
17341;DHT22;8788;49.930;8.660;2024-01-07T05:48:14;6.30;99.90
17341;DHT22;8788;49.930;8.660;2024-01-07T05:50:43;6.30;99.90
17341;DHT22;8788;49.930;8.660;2024-01-07T05:53:10;6.30;99.90
17341;DHT22;8788;49.930;8.660;2024-01-07T05:55:37;6.30;99.90
17341;DHT22;8788;49.930;8.660;2024-01-07T05:58:05;6.40;99.90
17341;DHT22;8788;49.930;8.660;2024-01-07T06:00:32;6.40;99.90
17341;DHT22;8788;49.930;8.660;2024-01-07T06:02:59;6.40;99.90
17341;DHT22;8788;49.930;8.660;2024-01-07T06:05:26;6.40;99.90
17341;DHT22;8788;49.930;8.660;2024-01-07T06:07:54;6.40;99.90
17341;DHT22;8788;49.930;8.660;2024-01-07T06:10:21;6.40;99.90
17341;DHT22;8788;49.930;8.660;2024-01-07T06:12:48;6.30;99.90
17341;DHT22;8788;49.930;8.660;2024-01-07T06:15:15;6.30;99.90
17341;DHT22;8788;49.930;8.660;2024-01-07T06:17:42;6.30;99.90
17341;DHT22;8788;49.930;8.660;2024-01-07T06:20:12;6.30;99.90
17341;DHT22;8788;49.930;8.660;2024-01-07T06:22:39;6.30;99.90
17341;DHT22;8788;49.930;8.660;2024-01-07T06:25:08;6.20;99.90
17341;DHT22;8788;49.930;8.660;2024-01-07T06:27:36;6.20;99.90
17341;DHT22;8788;49.930;8.660;2024-01-07T06:30:03;6.20;99.90
17341;DHT22;8788;49.930;8.660;2024-01-07T06:32:31;6.20;99.90
17341;DHT22;8788;49.930;8.660;2024-01-07T06:34:58;6.20;99.90
17341;DHT22;8788;49.930;8.660;2024-01-07T06:37:25;6.20;99.90
17341;DHT22;8788;49.930;8.660;2024-01-07T06:39:54;6.20;99.90
17341;DHT22;8788;49.930;8.660;2024-01-07T06:42:23;6.20;99.90
17341;DHT22;8788;49.930;8.660;2024-01-07T06:44:50;6.20;99.90
17341;DHT22;8788;49.930;8.660;2024-01-07T06:47:17;6.20;99.90
17341;DHT22;8788;49.930;8.660;2024-01-07T06:49:45;6.20;99.90
17341;DHT22;8788;49.930;8.660;2024-01-07T06:52:12;6.10;99.90
17341;DHT22;8788;49.930;8.660;2024-01-07T06:54:39;6.10;99.90
17341;DHT22;8788;49.930;8.660;2024-01-07T06:57:06;6.00;99.90
17341;DHT22;8788;49.930;8.660;2024-01-07T06:59:34;6.00;99.90
17341;DHT22;8788;49.930;8.660;2024-01-07T07:02:01;6.00;99.90
17341;DHT22;8788;49.930;8.660;2024-01-07T07:04:28;6.00;99.90
17341;DHT22;8788;49.930;8.660;2024-01-07T07:06:55;6.00;99.90
17341;DHT22;8788;49.930;8.660;2024-01-07T07:09:23;5.90;99.90
17341;DHT22;8788;49.930;8.660;2024-01-07T07:11:50;5.90;99.90
17341;DHT22;8788;49.930;8.660;2024-01-07T07:14:17;5.90;99.90
17341;DHT22;8788;49.930;8.660;2024-01-07T07:16:46;5.90;99.90
17341;DHT22;8788;49.930;8.660;2024-01-07T07:19:13;5.80;99.90
17341;DHT22;8788;49.930;8.660;2024-01-07T07:21:41;5.80;99.90
17341;DHT22;8788;49.930;8.660;2024-01-07T07:24:08;5.80;99.90
17341;DHT22;8788;49.930;8.660;2024-01-07T07:26:35;5.80;99.90
17341;DHT22;8788;49.930;8.660;2024-01-07T07:29:06;5.80;99.90
17341;DHT22;8788;49.930;8.660;2024-01-07T07:31:35;5.70;99.90
17341;DHT22;8788;49.930;8.660;2024-01-07T07:34:05;5.60;99.90
17341;DHT22;8788;49.930;8.660;2024-01-07T07:36:32;5.50;99.90
17341;DHT22;8788;49.930;8.660;2024-01-07T07:38:59;5.50;99.90
17341;DHT22;8788;49.930;8.660;2024-01-07T07:41:26;5.50;99.90
17341;DHT22;8788;49.930;8.660;2024-01-07T07:43:54;5.50;99.90
17341;DHT22;8788;49.930;8.660;2024-01-07T07:46:21;5.50;99.90
17341;DHT22;8788;49.930;8.660;2024-01-07T07:48:48;5.50;99.90
17341;DHT22;8788;49.930;8.660;2024-01-07T07:51:17;5.40;99.90
17341;DHT22;8788;49.930;8.660;2024-01-07T07:53:44;5.40;99.90
17341;DHT22;8788;49.930;8.660;2024-01-07T07:56:12;5.40;99.90
17341;DHT22;8788;49.930;8.660;2024-01-07T07:58:39;5.40;99.90
17341;DHT22;8788;49.930;8.660;2024-01-07T08:01:06;5.40;99.90
17341;DHT22;8788;49.930;8.660;2024-01-07T08:03:33;5.40;99.90
17341;DHT22;8788;49.930;8.660;2024-01-07T08:06:00;5.30;99.90
17341;DHT22;8788;49.930;8.660;2024-01-07T08:08:28;5.30;99.90
17341;DHT22;8788;49.930;8.660;2024-01-07T08:10:55;5.30;99.90
17341;DHT22;8788;49.930;8.660;2024-01-07T08:13:23;5.30;99.90
17341;DHT22;8788;49.930;8.660;2024-01-07T08:15:50;5.30;99.90
17341;DHT22;8788;49.930;8.660;2024-01-07T08:18:17;5.20;99.90
17341;DHT22;8788;49.930;8.660;2024-01-07T08:20:44;5.20;99.90
17341;DHT22;8788;49.930;8.660;2024-01-07T08:23:11;5.20;99.90
17341;DHT22;8788;49.930;8.660;2024-01-07T08:25:39;5.20;99.90
17341;DHT22;8788;49.930;8.660;2024-01-07T08:28:07;5.20;99.90
17341;DHT22;8788;49.930;8.660;2024-01-07T08:30:35;5.10;99.90
17341;DHT22;8788;49.930;8.660;2024-01-07T08:33:02;5.10;99.90
17341;DHT22;8788;49.930;8.660;2024-01-07T08:35:29;5.10;99.90
17341;DHT22;8788;49.930;8.660;2024-01-07T08:37:56;5.10;99.90
17341;DHT22;8788;49.930;8.660;2024-01-07T08:40:24;5.00;99.90
17341;DHT22;8788;49.930;8.660;2024-01-07T08:42:53;5.00;99.90
17341;DHT22;8788;49.930;8.660;2024-01-07T08:45:20;5.00;99.90
17341;DHT22;8788;49.930;8.660;2024-01-07T08:47:47;5.00;99.90
17341;DHT22;8788;49.930;8.660;2024-01-07T08:50:14;5.00;99.90
17341;DHT22;8788;49.930;8.660;2024-01-07T08:52:41;5.00;99.90
17341;DHT22;8788;49.930;8.660;2024-01-07T08:55:08;5.00;99.90
17341;DHT22;8788;49.930;8.660;2024-01-07T08:57:36;4.90;99.90
17341;DHT22;8788;49.930;8.660;2024-01-07T09:00:06;4.80;99.90
17341;DHT22;8788;49.930;8.660;2024-01-07T09:02:34;4.90;99.90
17341;DHT22;8788;49.930;8.660;2024-01-07T09:05:01;4.90;99.90
17341;DHT22;8788;49.930;8.660;2024-01-07T09:07:28;4.90;99.90
17341;DHT22;8788;49.930;8.660;2024-01-07T09:09:55;4.90;99.90
17341;DHT22;8788;49.930;8.660;2024-01-07T09:12:26;4.90;99.90
17341;DHT22;8788;49.930;8.660;2024-01-07T09:14:53;4.90;99.90
17341;DHT22;8788;49.930;8.660;2024-01-07T09:17:21;4.90;99.90
17341;DHT22;8788;49.930;8.660;2024-01-07T09:19:48;4.80;99.90
17341;DHT22;8788;49.930;8.660;2024-01-07T09:22:15;4.90;99.90
17341;DHT22;8788;49.930;8.660;2024-01-07T09:24:42;4.80;99.90
17341;DHT22;8788;49.930;8.660;2024-01-07T09:27:09;4.80;99.90
17341;DHT22;8788;49.930;8.660;2024-01-07T09:29:37;4.80;99.90
17341;DHT22;8788;49.930;8.660;2024-01-07T09:32:04;4.70;99.90
17341;DHT22;8788;49.930;8.660;2024-01-07T09:34:33;4.80;99.90
17341;DHT22;8788;49.930;8.660;2024-01-07T09:37:00;4.90;99.90
17341;DHT22;8788;49.930;8.660;2024-01-07T09:39:28;4.80;99.90
17341;DHT22;8788;49.930;8.660;2024-01-07T09:41:55;4.80;99.90
17341;DHT22;8788;49.930;8.660;2024-01-07T09:44:22;4.70;99.90
17341;DHT22;8788;49.930;8.660;2024-01-07T09:46:50;4.80;99.90
17341;DHT22;8788;49.930;8.660;2024-01-07T09:49:17;4.70;99.90
17341;DHT22;8788;49.930;8.660;2024-01-07T09:51:47;4.80;99.90
17341;DHT22;8788;49.930;8.660;2024-01-07T09:54:17;4.80;99.90
17341;DHT22;8788;49.930;8.660;2024-01-07T09:56:51;4.90;99.90
17341;DHT22;8788;49.930;8.660;2024-01-07T09:59:21;4.90;99.90
17341;DHT22;8788;49.930;8.660;2024-01-07T10:01:50;5.00;99.90
17341;DHT22;8788;49.930;8.660;2024-01-07T10:04:18;5.10;99.90
17341;DHT22;8788;49.930;8.660;2024-01-07T10:06:46;5.00;99.90
17341;DHT22;8788;49.930;8.660;2024-01-07T10:09:15;5.00;99.90
17341;DHT22;8788;49.930;8.660;2024-01-07T10:11:43;5.00;99.90
17341;DHT22;8788;49.930;8.660;2024-01-07T10:14:10;5.00;99.90
17341;DHT22;8788;49.930;8.660;2024-01-07T10:16:37;5.00;99.90
17341;DHT22;8788;49.930;8.660;2024-01-07T10:19:05;5.10;99.90
17341;DHT22;8788;49.930;8.660;2024-01-07T10:21:33;5.10;99.90
17341;DHT22;8788;49.930;8.660;2024-01-07T10:24:09;5.10;99.90
17341;DHT22;8788;49.930;8.660;2024-01-07T10:26:37;5.20;99.90
17341;DHT22;8788;49.930;8.660;2024-01-07T10:29:04;5.20;99.90
17341;DHT22;8788;49.930;8.660;2024-01-07T10:31:32;5.20;99.90
17341;DHT22;8788;49.930;8.660;2024-01-07T10:33:59;5.30;99.90
17341;DHT22;8788;49.930;8.660;2024-01-07T10:36:26;5.40;99.90
17341;DHT22;8788;49.930;8.660;2024-01-07T10:38:54;5.40;99.90
17341;DHT22;8788;49.930;8.660;2024-01-07T10:41:24;5.50;99.90
17341;DHT22;8788;49.930;8.660;2024-01-07T10:43:52;5.50;99.90
17341;DHT22;8788;49.930;8.660;2024-01-07T10:46:20;5.50;99.90
17341;DHT22;8788;49.930;8.660;2024-01-07T10:48:53;5.50;99.90
17341;DHT22;8788;49.930;8.660;2024-01-07T10:51:21;5.70;99.90
17341;DHT22;8788;49.930;8.660;2024-01-07T10:53:52;5.80;99.90
17341;DHT22;8788;49.930;8.660;2024-01-07T10:56:24;5.80;99.90
17341;DHT22;8788;49.930;8.660;2024-01-07T10:58:52;5.80;99.90
17341;DHT22;8788;49.930;8.660;2024-01-07T11:01:20;5.90;99.90
17341;DHT22;8788;49.930;8.660;2024-01-07T11:03:56;5.90;99.90
17341;DHT22;8788;49.930;8.660;2024-01-07T11:06:27;5.90;99.90
17341;DHT22;8788;49.930;8.660;2024-01-07T11:09:02;6.00;99.90
17341;DHT22;8788;49.930;8.660;2024-01-07T11:11:36;6.00;99.90
17341;DHT22;8788;49.930;8.660;2024-01-07T11:14:33;6.00;99.90
17341;DHT22;8788;49.930;8.660;2024-01-07T11:17:00;5.70;99.90
17341;DHT22;8788;49.930;8.660;2024-01-07T11:19:28;5.60;99.90
17341;DHT22;8788;49.930;8.660;2024-01-07T11:22:21;5.50;99.90
17341;DHT22;8788;49.930;8.660;2024-01-07T11:24:50;5.30;99.90
17341;DHT22;8788;49.930;8.660;2024-01-07T11:27:20;5.20;99.90
17341;DHT22;8788;49.930;8.660;2024-01-07T11:29:53;5.10;99.90
17341;DHT22;8788;49.930;8.660;2024-01-07T11:32:22;5.10;99.90
17341;DHT22;8788;49.930;8.660;2024-01-07T11:34:51;5.10;99.90
17341;DHT22;8788;49.930;8.660;2024-01-07T11:37:19;5.10;99.90
17341;DHT22;8788;49.930;8.660;2024-01-07T11:39:48;5.00;99.90
17341;DHT22;8788;49.930;8.660;2024-01-07T11:42:17;5.00;99.90
17341;DHT22;8788;49.930;8.660;2024-01-07T11:44:47;5.00;99.90
17341;DHT22;8788;49.930;8.660;2024-01-07T11:47:15;4.90;99.90
17341;DHT22;8788;49.930;8.660;2024-01-07T11:49:43;5.00;99.90
17341;DHT22;8788;49.930;8.660;2024-01-07T11:52:10;5.00;99.90
17341;DHT22;8788;49.930;8.660;2024-01-07T11:54:37;4.90;99.90
17341;DHT22;8788;49.930;8.660;2024-01-07T11:57:05;4.70;99.90
17341;DHT22;8788;49.930;8.660;2024-01-07T11:59:33;4.70;99.90
17341;DHT22;8788;49.930;8.660;2024-01-07T12:02:02;4.70;99.90
17341;DHT22;8788;49.930;8.660;2024-01-07T12:04:31;4.70;99.90
17341;DHT22;8788;49.930;8.660;2024-01-07T12:06:58;4.70;99.90
17341;DHT22;8788;49.930;8.660;2024-01-07T12:09:25;4.70;99.90
17341;DHT22;8788;49.930;8.660;2024-01-07T12:11:53;4.70;99.90
17341;DHT22;8788;49.930;8.660;2024-01-07T12:14:20;4.80;99.90
17341;DHT22;8788;49.930;8.660;2024-01-07T12:16:49;4.70;99.90
17341;DHT22;8788;49.930;8.660;2024-01-07T12:19:16;4.70;99.90
17341;DHT22;8788;49.930;8.660;2024-01-07T12:21:43;4.70;99.90
17341;DHT22;8788;49.930;8.660;2024-01-07T12:24:10;4.70;99.90
17341;DHT22;8788;49.930;8.660;2024-01-07T12:26:39;4.70;99.90
17341;DHT22;8788;49.930;8.660;2024-01-07T12:29:06;4.70;99.90
17341;DHT22;8788;49.930;8.660;2024-01-07T12:31:34;4.60;99.90
17341;DHT22;8788;49.930;8.660;2024-01-07T12:34:03;4.60;99.90
17341;DHT22;8788;49.930;8.660;2024-01-07T12:36:31;4.70;99.90
17341;DHT22;8788;49.930;8.660;2024-01-07T12:38:58;4.70;99.90
17341;DHT22;8788;49.930;8.660;2024-01-07T12:41:25;4.60;99.90
17341;DHT22;8788;49.930;8.660;2024-01-07T12:43:52;4.60;99.90
17341;DHT22;8788;49.930;8.660;2024-01-07T12:46:19;4.70;99.90
17341;DHT22;8788;49.930;8.660;2024-01-07T12:48:46;4.70;99.90
17341;DHT22;8788;49.930;8.660;2024-01-07T12:51:16;4.80;99.90
17341;DHT22;8788;49.930;8.660;2024-01-07T12:53:43;4.80;99.90
17341;DHT22;8788;49.930;8.660;2024-01-07T12:56:10;4.90;99.90
17341;DHT22;8788;49.930;8.660;2024-01-07T12:58:38;4.90;99.90
17341;DHT22;8788;49.930;8.660;2024-01-07T13:01:05;5.00;99.90
17341;DHT22;8788;49.930;8.660;2024-01-07T13:03:33;5.10;99.90
17341;DHT22;8788;49.930;8.660;2024-01-07T13:06:00;5.10;99.90
17341;DHT22;8788;49.930;8.660;2024-01-07T13:08:28;5.00;99.90
17341;DHT22;8788;49.930;8.660;2024-01-07T13:10:56;5.00;99.90
17341;DHT22;8788;49.930;8.660;2024-01-07T13:13:24;5.00;99.90
17341;DHT22;8788;49.930;8.660;2024-01-07T13:15:51;4.90;99.90
17341;DHT22;8788;49.930;8.660;2024-01-07T13:18:18;4.90;99.90
17341;DHT22;8788;49.930;8.660;2024-01-07T13:20:46;4.90;99.90
17341;DHT22;8788;49.930;8.660;2024-01-07T13:23:13;4.90;99.90
17341;DHT22;8788;49.930;8.660;2024-01-07T13:25:41;4.90;99.90
17341;DHT22;8788;49.930;8.660;2024-01-07T13:28:08;4.80;99.90
17341;DHT22;8788;49.930;8.660;2024-01-07T13:30:37;4.70;99.90
17341;DHT22;8788;49.930;8.660;2024-01-07T13:33:05;4.70;99.90
17341;DHT22;8788;49.930;8.660;2024-01-07T13:35:33;4.70;99.90
17341;DHT22;8788;49.930;8.660;2024-01-07T13:38:01;4.60;99.90
17341;DHT22;8788;49.930;8.660;2024-01-07T13:40:28;4.50;99.90
17341;DHT22;8788;49.930;8.660;2024-01-07T13:42:57;4.40;99.90
17341;DHT22;8788;49.930;8.660;2024-01-07T13:45:24;4.30;99.90
17341;DHT22;8788;49.930;8.660;2024-01-07T13:47:51;4.30;99.90
17341;DHT22;8788;49.930;8.660;2024-01-07T13:50:18;4.30;99.90
17341;DHT22;8788;49.930;8.660;2024-01-07T13:52:45;4.20;99.90
17341;DHT22;8788;49.930;8.660;2024-01-07T13:55:12;4.10;99.90
17341;DHT22;8788;49.930;8.660;2024-01-07T13:57:39;4.10;99.90
17341;DHT22;8788;49.930;8.660;2024-01-07T14:00:09;4.10;99.90
17341;DHT22;8788;49.930;8.660;2024-01-07T14:02:43;4.10;99.90
17341;DHT22;8788;49.930;8.660;2024-01-07T14:05:11;3.90;99.90
17341;DHT22;8788;49.930;8.660;2024-01-07T14:07:38;3.90;99.90
17341;DHT22;8788;49.930;8.660;2024-01-07T14:10:07;3.80;99.90
17341;DHT22;8788;49.930;8.660;2024-01-07T14:12:34;3.70;99.90
17341;DHT22;8788;49.930;8.660;2024-01-07T14:15:01;3.70;99.90
17341;DHT22;8788;49.930;8.660;2024-01-07T14:17:30;3.80;99.90
17341;DHT22;8788;49.930;8.660;2024-01-07T14:19:57;3.80;99.90
17341;DHT22;8788;49.930;8.660;2024-01-07T14:22:24;3.80;99.90
17341;DHT22;8788;49.930;8.660;2024-01-07T14:24:51;3.80;99.90
17341;DHT22;8788;49.930;8.660;2024-01-07T14:27:18;3.70;99.90
17341;DHT22;8788;49.930;8.660;2024-01-07T14:29:45;3.70;99.90
17341;DHT22;8788;49.930;8.660;2024-01-07T14:32:13;3.70;99.90
17341;DHT22;8788;49.930;8.660;2024-01-07T14:34:42;3.60;99.90
17341;DHT22;8788;49.930;8.660;2024-01-07T14:37:09;3.60;99.90
17341;DHT22;8788;49.930;8.660;2024-01-07T14:39:37;3.60;99.90
17341;DHT22;8788;49.930;8.660;2024-01-07T14:42:04;3.70;99.90
17341;DHT22;8788;49.930;8.660;2024-01-07T14:44:32;3.60;99.90
17341;DHT22;8788;49.930;8.660;2024-01-07T14:46:59;3.50;99.90
17341;DHT22;8788;49.930;8.660;2024-01-07T14:49:26;3.40;99.90
17341;DHT22;8788;49.930;8.660;2024-01-07T14:51:54;3.40;99.90
17341;DHT22;8788;49.930;8.660;2024-01-07T14:54:21;3.40;99.90
17341;DHT22;8788;49.930;8.660;2024-01-07T14:56:48;3.40;99.90
17341;DHT22;8788;49.930;8.660;2024-01-07T14:59:15;3.40;99.90
17341;DHT22;8788;49.930;8.660;2024-01-07T15:01:42;3.40;99.90
17341;DHT22;8788;49.930;8.660;2024-01-07T15:04:10;3.40;99.90
17341;DHT22;8788;49.930;8.660;2024-01-07T15:06:41;3.30;99.90
17341;DHT22;8788;49.930;8.660;2024-01-07T15:09:11;3.20;99.90
17341;DHT22;8788;49.930;8.660;2024-01-07T15:11:39;3.10;99.90
17341;DHT22;8788;49.930;8.660;2024-01-07T15:14:07;3.20;99.90
17341;DHT22;8788;49.930;8.660;2024-01-07T15:16:34;3.10;99.90
17341;DHT22;8788;49.930;8.660;2024-01-07T15:19:02;3.10;99.90
17341;DHT22;8788;49.930;8.660;2024-01-07T15:21:29;3.10;99.90
17341;DHT22;8788;49.930;8.660;2024-01-07T15:23:56;3.00;99.90
17341;DHT22;8788;49.930;8.660;2024-01-07T15:26:25;2.90;99.90
17341;DHT22;8788;49.930;8.660;2024-01-07T15:28:52;2.80;99.90
17341;DHT22;8788;49.930;8.660;2024-01-07T15:31:19;2.90;99.90
17341;DHT22;8788;49.930;8.660;2024-01-07T15:33:46;2.80;99.90
17341;DHT22;8788;49.930;8.660;2024-01-07T15:36:13;2.80;99.90
17341;DHT22;8788;49.930;8.660;2024-01-07T15:38:40;2.80;99.90
17341;DHT22;8788;49.930;8.660;2024-01-07T15:41:07;2.80;99.90
17341;DHT22;8788;49.930;8.660;2024-01-07T15:43:36;2.70;99.90
17341;DHT22;8788;49.930;8.660;2024-01-07T15:46:03;2.60;99.90
17341;DHT22;8788;49.930;8.660;2024-01-07T15:48:31;2.60;99.90
17341;DHT22;8788;49.930;8.660;2024-01-07T15:50:58;2.60;99.90
17341;DHT22;8788;49.930;8.660;2024-01-07T15:53:25;2.60;99.90
17341;DHT22;8788;49.930;8.660;2024-01-07T15:56:00;2.50;99.90
17341;DHT22;8788;49.930;8.660;2024-01-07T15:58:28;2.40;99.90
17341;DHT22;8788;49.930;8.660;2024-01-07T16:01:00;2.40;99.90
17341;DHT22;8788;49.930;8.660;2024-01-07T16:03:28;2.30;99.90
17341;DHT22;8788;49.930;8.660;2024-01-07T16:05:56;2.30;99.90